createdAt,value
2018-03-22T00:01:05.407Z,-2.10
2018-03-22T00:03:31.643Z,-2.20
2018-03-22T00:05:57.877Z,-2.20
2018-03-22T00:08:24.117Z,-2.20
2018-03-22T00:10:50.573Z,-2.20
2018-03-22T00:13:16.777Z,-2.30
2018-03-22T00:15:42.995Z,-2.30
2018-03-22T00:18:09.224Z,-2.30
2018-03-22T00:20:35.452Z,-2.30
2018-03-22T00:23:02.453Z,-2.40
2018-03-22T00:25:28.656Z,-2.40
2018-03-22T00:27:55.621Z,-2.40
2018-03-22T00:30:21.840Z,-2.40
2018-03-22T00:32:48.799Z,-2.40
2018-03-22T00:35:15.758Z,-2.40
2018-03-22T00:37:42.704Z,-2.40
2018-03-22T00:40:08.933Z,-2.50
2018-03-22T00:42:35.139Z,-2.50
2018-03-22T00:45:01.365Z,-2.40
2018-03-22T00:47:27.592Z,-2.40
2018-03-22T00:49:53.860Z,-2.40
2018-03-22T00:52:20.059Z,-2.40
2018-03-22T00:54:47.030Z,-2.50
2018-03-22T00:57:13.280Z,-2.50
2018-03-22T00:59:39.508Z,-2.50
2018-03-22T01:02:06.544Z,-2.50
2018-03-22T01:04:32.780Z,-2.60
2018-03-22T01:06:59.024Z,-2.60
2018-03-22T01:09:25.973Z,-2.60
2018-03-22T01:11:52.957Z,-2.60
2018-03-22T01:14:19.931Z,-2.60
2018-03-22T01:16:46.166Z,-2.60
2018-03-22T01:19:12.391Z,-2.60
2018-03-22T01:21:39.361Z,-2.60
2018-03-22T01:24:05.578Z,-2.60
2018-03-22T01:26:31.807Z,-2.60
2018-03-22T01:28:58.030Z,-2.70
2018-03-22T01:31:24.971Z,-2.60
2018-03-22T01:33:51.188Z,-2.70
2018-03-22T01:36:17.408Z,-2.70
2018-03-22T01:38:44.372Z,-2.80
2018-03-22T01:41:10.596Z,-2.80
2018-03-22T01:43:37.831Z,-2.80
2018-03-22T01:46:04.052Z,-2.80
2018-03-22T01:48:31.059Z,-2.80
2018-03-22T01:50:58.025Z,-2.80
2018-03-22T01:53:24.998Z,-2.80
2018-03-22T01:55:51.230Z,-2.90
2018-03-22T01:58:18.208Z,-2.80
2018-03-22T02:00:44.452Z,-2.90
2018-03-22T02:03:10.698Z,-2.90
2018-03-22T02:05:36.932Z,-2.90
2018-03-22T02:08:03.176Z,-2.90
2018-03-22T02:10:29.391Z,-2.90
2018-03-22T02:12:55.656Z,-2.80
2018-03-22T02:15:21.861Z,-2.90
2018-03-22T02:17:48.828Z,-2.90
2018-03-22T02:20:15.809Z,-2.90
2018-03-22T02:22:42.046Z,-2.90
2018-03-22T02:25:08.283Z,-2.90
2018-03-22T02:27:34.521Z,-2.90
2018-03-22T02:30:07.754Z,-2.90
2018-03-22T02:32:33.975Z,-2.90
2018-03-22T02:35:00.206Z,-2.90
2018-03-22T02:37:26.433Z,-3.00
2018-03-22T02:39:52.687Z,-3.00
2018-03-22T02:42:18.922Z,-3.00
2018-03-22T02:44:45.558Z,-3.00
2018-03-22T02:47:12.522Z,-3.10
2018-03-22T02:49:38.738Z,-3.10
2018-03-22T02:52:05.003Z,-3.10
2018-03-22T02:54:31.288Z,-3.10
2018-03-22T02:56:57.534Z,-3.10
2018-03-22T02:59:23.759Z,-3.10
2018-03-22T03:01:50.029Z,-3.10
2018-03-22T03:04:16.259Z,-3.20
2018-03-22T03:06:42.476Z,-3.20
2018-03-22T03:09:08.709Z,-3.20
2018-03-22T03:11:34.928Z,-3.20
2018-03-22T03:14:02.185Z,-3.30
2018-03-22T03:16:29.139Z,-3.20
2018-03-22T03:18:56.092Z,-3.20
2018-03-22T03:21:23.053Z,-3.30
2018-03-22T03:23:50.001Z,-3.30
2018-03-22T03:26:16.970Z,-3.30
2018-03-22T03:28:43.924Z,-3.30
2018-03-22T03:31:10.895Z,-3.30
2018-03-22T03:33:37.854Z,-3.40
2018-03-22T03:36:04.128Z,-3.40
2018-03-22T03:38:30.343Z,-3.40
2018-03-22T03:40:56.648Z,-3.40
2018-03-22T03:43:22.880Z,-3.40
2018-03-22T03:45:49.112Z,-3.40
2018-03-22T03:48:15.417Z,-3.40
2018-03-22T03:50:42.346Z,-3.50
2018-03-22T03:53:09.300Z,-3.50
2018-03-22T03:55:36.328Z,-3.40
2018-03-22T03:58:02.581Z,-3.40
2018-03-22T04:00:28.834Z,-3.40
2018-03-22T04:02:55.795Z,-3.40
2018-03-22T04:05:22.769Z,-3.50
2018-03-22T04:07:48.980Z,-3.50
2018-03-22T04:10:15.211Z,-3.50
2018-03-22T04:12:41.446Z,-3.50
2018-03-22T04:15:07.666Z,-3.60
2018-03-22T04:17:33.906Z,-3.60
2018-03-22T04:20:00.124Z,-3.60
2018-03-22T04:22:26.348Z,-3.60
2018-03-22T04:24:52.581Z,-3.60
2018-03-22T04:27:19.541Z,-3.60
2018-03-22T04:29:46.497Z,-3.60
2018-03-22T04:32:13.447Z,-3.60
2018-03-22T04:34:40.407Z,-3.60
2018-03-22T04:37:07.361Z,-3.00
2018-03-22T04:39:34.345Z,-1.80
2018-03-22T04:42:00.577Z,-1.90
2018-03-22T04:44:26.810Z,-0.80
2018-03-22T04:46:53.779Z,0.40
2018-03-22T04:49:19.975Z,0.40
2018-03-22T04:51:46.451Z,0.70
2018-03-22T04:54:13.459Z,1.30
2018-03-22T04:56:39.669Z,1.30
2018-03-22T04:59:05.906Z,1.50
2018-03-22T05:01:32.119Z,1.70
2018-03-22T05:03:59.099Z,1.50
2018-03-22T05:06:25.313Z,1.50
2018-03-22T05:08:51.539Z,0.90
2018-03-22T05:11:17.748Z,0.30
2018-03-22T05:13:43.966Z,-0.30
2018-03-22T05:16:10.172Z,-0.80
2018-03-22T05:18:36.421Z,-0.90
2018-03-22T05:21:02.654Z,-0.40
2018-03-22T05:23:29.629Z,0.40
2018-03-22T05:25:56.612Z,0.10
2018-03-22T05:28:22.847Z,0.10
2018-03-22T05:30:49.056Z,-0.40
2018-03-22T05:33:16.042Z,-1.20
2018-03-22T05:35:42.285Z,-1.20
2018-03-22T05:38:08.514Z,-1.50
2018-03-22T05:40:34.844Z,-1.70
2018-03-22T05:43:01.826Z,-2.10
2018-03-22T05:45:28.039Z,-2.10
2018-03-22T05:47:54.990Z,-2.30
2018-03-22T05:50:21.978Z,-2.40
2018-03-22T05:52:48.195Z,-2.40
2018-03-22T05:55:15.196Z,-2.60
2018-03-22T05:57:41.408Z,-2.60
2018-03-22T06:00:07.660Z,-2.60
2018-03-22T06:02:33.890Z,-2.40
2018-03-22T06:05:07.113Z,-2.10
2018-03-22T06:07:33.347Z,-1.90
2018-03-22T06:09:59.580Z,-1.70
2018-03-22T06:12:25.810Z,-1.50
2018-03-22T06:14:52.029Z,-1.40
2018-03-22T06:17:26.062Z,-1.30
2018-03-22T06:19:52.250Z,-1.30
2018-03-22T06:22:18.485Z,-1.20
2018-03-22T06:24:44.751Z,-1.10
2018-03-22T06:27:11.041Z,-1.00
2018-03-22T06:29:37.294Z,-1.10
2018-03-22T06:32:03.608Z,-1.30
2018-03-22T06:34:30.611Z,-1.50
2018-03-22T06:36:56.855Z,-1.50
2018-03-22T06:39:23.063Z,-1.60
2018-03-22T06:41:50.057Z,-1.60
2018-03-22T06:44:17.025Z,-1.60
2018-03-22T06:46:43.259Z,-1.60
2018-03-22T06:49:09.487Z,-1.60
2018-03-22T06:51:35.721Z,-1.60
2018-03-22T06:54:01.935Z,-1.60
2018-03-22T06:56:28.189Z,-1.60
2018-03-22T06:58:54.425Z,-1.60
2018-03-22T07:01:20.652Z,-1.50
2018-03-22T07:03:47.640Z,-1.50
2018-03-22T07:06:13.865Z,-1.50
2018-03-22T07:08:40.411Z,-1.40
2018-03-22T07:11:06.629Z,-1.30
2018-03-22T07:13:33.609Z,-1.20
2018-03-22T07:15:59.839Z,-1.30
2018-03-22T07:18:26.083Z,-1.20
2018-03-22T07:20:52.297Z,-1.20
2018-03-22T07:23:18.504Z,-1.20
2018-03-22T07:25:45.085Z,-1.10
2018-03-22T07:28:11.323Z,-1.10
2018-03-22T07:30:37.549Z,-1.00
2018-03-22T07:33:03.799Z,-0.90
2018-03-22T07:35:30.070Z,-0.90
2018-03-22T07:37:56.309Z,-0.90
2018-03-22T07:40:22.536Z,-0.90
2018-03-22T07:42:55.512Z,-0.90
2018-03-22T07:45:21.728Z,-1.00
2018-03-22T07:47:47.964Z,-0.90
2018-03-22T07:50:14.235Z,-0.90
2018-03-22T07:52:40.462Z,-0.80
2018-03-22T07:55:06.742Z,-0.80
2018-03-22T07:57:33.687Z,-0.70
2018-03-22T07:59:59.959Z,-0.70
2018-03-22T08:02:26.179Z,-0.60
2018-03-22T08:04:53.158Z,-0.50
2018-03-22T08:07:19.418Z,-0.50
2018-03-22T08:09:45.632Z,-0.40
2018-03-22T08:12:11.880Z,-0.30
2018-03-22T08:14:38.102Z,-0.20
2018-03-22T08:17:05.062Z,0.00
2018-03-22T08:19:32.024Z,0.00
2018-03-22T08:21:58.244Z,0.00
2018-03-22T08:24:24.473Z,0.10
2018-03-22T08:26:50.684Z,0.10
2018-03-22T08:29:16.913Z,0.20
2018-03-22T08:31:43.129Z,0.20
2018-03-22T08:34:09.704Z,0.30
2018-03-22T08:36:35.961Z,0.40
2018-03-22T08:39:02.234Z,0.50
2018-03-22T08:41:28.479Z,0.50
2018-03-22T08:43:55.454Z,0.80
2018-03-22T08:46:22.422Z,0.80
2018-03-22T08:48:48.675Z,0.80
2018-03-22T08:51:14.918Z,0.90
2018-03-22T08:53:41.162Z,0.90
2018-03-22T08:56:07.375Z,1.00
2018-03-22T08:58:34.377Z,1.10
2018-03-22T09:01:00.598Z,1.10
2018-03-22T09:03:26.833Z,1.10
2018-03-22T09:05:53.086Z,1.20
2018-03-22T09:08:19.344Z,1.30
2018-03-22T09:10:45.566Z,1.40
2018-03-22T09:13:11.788Z,1.50
2018-03-22T09:15:38.046Z,1.60
2018-03-22T09:18:04.297Z,1.70
2018-03-22T09:20:30.535Z,1.70
2018-03-22T09:22:56.765Z,1.80
2018-03-22T09:25:23.001Z,2.00
2018-03-22T09:27:49.293Z,2.10
2018-03-22T09:30:15.475Z,2.20
2018-03-22T09:32:41.701Z,2.20
2018-03-22T09:35:07.917Z,2.30
2018-03-22T09:37:35.251Z,2.30
2018-03-22T09:40:01.477Z,2.30
2018-03-22T09:42:27.683Z,2.30
2018-03-22T09:44:53.928Z,2.40
2018-03-22T09:47:20.153Z,2.60
2018-03-22T09:49:47.143Z,2.90
2018-03-22T09:52:13.359Z,2.90
2018-03-22T09:54:40.405Z,3.20
2018-03-22T09:57:07.416Z,3.30
2018-03-22T09:59:34.014Z,3.30
2018-03-22T10:02:00.997Z,3.40
2018-03-22T10:04:27.241Z,3.40
2018-03-22T10:06:53.481Z,3.50
2018-03-22T10:09:19.696Z,3.50
2018-03-22T10:11:46.673Z,3.60
2018-03-22T10:14:12.879Z,3.60
2018-03-22T10:16:39.867Z,3.60
2018-03-22T10:19:06.818Z,3.70
2018-03-22T10:21:33.770Z,3.70
2018-03-22T10:24:00.748Z,3.80
2018-03-22T10:26:26.971Z,3.90
2018-03-22T10:28:53.932Z,4.10
2018-03-22T10:31:20.896Z,4.20
2018-03-22T10:33:48.126Z,4.60
2018-03-22T10:36:14.377Z,4.60
2018-03-22T10:38:40.621Z,4.80
2018-03-22T10:41:07.632Z,5.20
2018-03-22T10:43:33.858Z,5.20
2018-03-22T10:46:00.094Z,5.30
2018-03-22T10:48:26.379Z,5.70
2018-03-22T10:50:52.566Z,6.00
2018-03-22T10:53:18.871Z,6.30
2018-03-22T10:55:48.224Z,6.40
2018-03-22T10:58:14.472Z,6.40
2018-03-22T11:00:46.880Z,6.50
2018-03-22T11:03:28.042Z,6.70
2018-03-22T11:05:54.292Z,6.90
2018-03-22T11:08:20.514Z,6.90
2018-03-22T11:10:46.770Z,6.90
2018-03-22T11:13:13.004Z,7.00
2018-03-22T11:15:39.270Z,7.10
2018-03-22T11:18:05.502Z,7.10
2018-03-22T11:20:31.730Z,7.10
2018-03-22T11:22:57.988Z,7.40
2018-03-22T11:25:24.223Z,7.60
2018-03-22T11:27:50.437Z,7.70
2018-03-22T11:30:16.705Z,7.70
2018-03-22T11:32:42.947Z,7.80
2018-03-22T11:35:12.254Z,7.90
2018-03-22T11:37:38.527Z,8.20
2018-03-22T11:40:04.765Z,8.60
2018-03-22T11:42:30.992Z,8.70
2018-03-22T11:44:57.204Z,8.40
2018-03-22T11:47:23.466Z,8.00
2018-03-22T11:49:49.698Z,7.70
2018-03-22T11:52:15.968Z,7.60
2018-03-22T11:54:42.192Z,7.50
2018-03-22T11:57:08.408Z,7.60
2018-03-22T11:59:34.660Z,7.90
2018-03-22T12:02:00.933Z,8.10
2018-03-22T12:04:27.221Z,8.10
2018-03-22T12:06:53.491Z,8.00
2018-03-22T12:09:19.684Z,8.00
2018-03-22T12:11:46.645Z,7.40
2018-03-22T12:14:13.592Z,7.40
2018-03-22T12:16:40.951Z,7.40
2018-03-22T12:19:07.205Z,7.50
2018-03-22T12:21:34.197Z,8.00
2018-03-22T12:24:00.439Z,8.00
2018-03-22T12:26:26.662Z,8.40
2018-03-22T12:28:53.625Z,8.80
2018-03-22T12:31:19.861Z,8.80
2018-03-22T12:33:47.091Z,9.10
2018-03-22T12:36:13.343Z,9.10
2018-03-22T12:38:40.316Z,10.40
2018-03-22T12:41:07.307Z,10.90
2018-03-22T12:43:33.527Z,10.90
2018-03-22T12:45:59.809Z,11.20
2018-03-22T12:48:26.025Z,11.40
2018-03-22T12:50:52.491Z,11.70
2018-03-22T12:53:18.763Z,11.70
2018-03-22T12:55:45.019Z,11.50
2018-03-22T12:58:12.013Z,11.30
2018-03-22T13:00:38.246Z,11.30
2018-03-22T13:03:04.481Z,11.00
2018-03-22T13:05:30.728Z,11.30
2018-03-22T13:07:57.005Z,11.60
2018-03-22T13:10:23.259Z,11.50
2018-03-22T13:12:49.480Z,11.00
2018-03-22T13:15:15.726Z,10.70
2018-03-22T13:17:41.944Z,10.20
2018-03-22T13:20:08.185Z,10.10
2018-03-22T13:22:34.427Z,10.10
2018-03-22T13:25:00.972Z,10.20
2018-03-22T13:27:27.227Z,10.50
2018-03-22T13:29:53.544Z,10.60
2018-03-22T13:32:20.500Z,11.00
2018-03-22T13:34:46.722Z,11.00
2018-03-22T13:37:12.937Z,11.00
2018-03-22T13:39:39.154Z,10.90
2018-03-22T13:42:05.416Z,10.70
2018-03-22T13:44:32.404Z,10.30
2018-03-22T13:46:58.634Z,10.30
2018-03-22T13:49:24.890Z,10.10
2018-03-22T13:51:51.134Z,10.00
2018-03-22T13:54:17.760Z,9.80
2018-03-22T13:56:44.712Z,9.10
2018-03-22T13:59:11.707Z,8.90
2018-03-22T14:01:37.931Z,8.90
2018-03-22T14:04:04.167Z,8.70
2018-03-22T14:06:30.453Z,8.50
2018-03-22T14:08:56.696Z,8.30
2018-03-22T14:11:22.978Z,8.20
2018-03-22T14:13:49.214Z,8.00
2018-03-22T14:16:15.433Z,7.90
2018-03-22T14:18:42.009Z,7.80
2018-03-22T14:21:08.975Z,7.50
2018-03-22T14:23:35.221Z,7.50
2018-03-22T14:26:01.443Z,7.40
2018-03-22T14:28:28.429Z,7.30
2018-03-22T14:30:54.700Z,7.30
2018-03-22T14:33:20.975Z,7.30
2018-03-22T14:35:47.961Z,7.30
2018-03-22T14:38:14.907Z,7.40
2018-03-22T14:40:41.897Z,7.50
2018-03-22T14:43:08.139Z,7.50
2018-03-22T14:45:34.361Z,7.60
2018-03-22T14:48:00.605Z,7.80
2018-03-22T14:50:26.812Z,8.00
2018-03-22T14:52:53.350Z,8.10
2018-03-22T14:55:19.571Z,8.20
2018-03-22T14:57:45.812Z,8.20
2018-03-22T15:00:12.058Z,8.20
2018-03-22T15:02:38.284Z,8.30
2018-03-22T15:05:04.589Z,8.40
2018-03-22T15:07:30.863Z,8.50
2018-03-22T15:09:57.129Z,8.70
2018-03-22T15:12:23.402Z,8.70
2018-03-22T15:14:50.370Z,8.60
2018-03-22T15:17:16.594Z,8.60
2018-03-22T15:19:43.565Z,8.20
2018-03-22T15:22:09.834Z,8.20
2018-03-22T15:24:36.070Z,8.00
2018-03-22T15:27:02.351Z,7.80
2018-03-22T15:29:28.609Z,7.50
2018-03-22T15:31:55.583Z,7.10
2018-03-22T15:34:29.420Z,6.90
2018-03-22T15:36:56.036Z,6.90
2018-03-22T15:39:22.998Z,6.70
2018-03-22T15:41:49.972Z,6.60
2018-03-22T15:44:16.948Z,6.50
2018-03-22T15:46:43.171Z,6.50
2018-03-22T15:49:10.171Z,6.30
2018-03-22T15:51:36.412Z,6.30
2018-03-22T15:54:02.705Z,6.20
2018-03-22T15:56:29.667Z,6.10
2018-03-22T15:58:55.922Z,6.10
2018-03-22T16:01:22.160Z,6.10
2018-03-22T16:03:48.356Z,6.00
2018-03-22T16:06:14.587Z,5.90
2018-03-22T16:08:40.808Z,6.00
2018-03-22T16:11:07.057Z,5.90
2018-03-22T16:13:33.309Z,5.90
2018-03-22T16:15:59.565Z,5.80
2018-03-22T16:18:25.809Z,5.80
2018-03-22T16:20:52.355Z,5.70
2018-03-22T16:23:18.576Z,5.60
2018-03-22T16:25:44.808Z,5.60
2018-03-22T16:28:11.077Z,5.50
2018-03-22T16:30:37.316Z,5.40
2018-03-22T16:33:03.553Z,5.30
2018-03-22T16:35:29.828Z,5.20
2018-03-22T16:37:56.382Z,5.20
2018-03-22T16:40:22.631Z,5.10
2018-03-22T16:42:48.877Z,5.00
2018-03-22T16:45:15.186Z,5.00
2018-03-22T16:47:42.213Z,5.00
2018-03-22T16:50:08.463Z,4.90
2018-03-22T16:52:34.720Z,4.90
2018-03-22T16:55:01.706Z,4.80
2018-03-22T16:57:27.935Z,4.80
2018-03-22T16:59:54.225Z,4.80
2018-03-22T17:02:20.478Z,4.80
2018-03-22T17:04:46.791Z,4.70
2018-03-22T17:07:13.145Z,4.70
2018-03-22T17:09:39.391Z,4.60
2018-03-22T17:12:05.957Z,4.60
2018-03-22T17:14:32.221Z,4.50
2018-03-22T17:16:59.226Z,4.40
2018-03-22T17:19:26.417Z,4.40
2018-03-22T17:21:52.680Z,4.30
2018-03-22T17:24:19.727Z,4.30
2018-03-22T17:26:45.984Z,4.30
2018-03-22T17:29:13.035Z,4.20
2018-03-22T17:31:40.063Z,4.10
2018-03-22T17:34:06.337Z,4.10
2018-03-22T17:36:33.351Z,4.10
2018-03-22T17:38:59.625Z,4.10
2018-03-22T17:41:25.871Z,4.00
2018-03-22T17:43:52.137Z,4.00
2018-03-22T17:46:18.361Z,3.90
2018-03-22T17:48:45.463Z,3.90
2018-03-22T17:51:11.756Z,3.90
2018-03-22T17:53:38.871Z,3.80
2018-03-22T17:56:05.235Z,3.80
2018-03-22T17:58:31.532Z,3.80
2018-03-22T18:00:57.882Z,3.70
2018-03-22T18:03:24.246Z,3.60
2018-03-22T18:05:50.540Z,3.60
2018-03-22T18:08:17.559Z,3.60
2018-03-22T18:10:43.835Z,3.60
2018-03-22T18:13:10.230Z,3.60
2018-03-22T18:15:36.514Z,3.60
2018-03-22T18:18:02.854Z,3.50
2018-03-22T18:20:29.158Z,3.50
2018-03-22T18:22:56.211Z,3.40
2018-03-22T18:25:22.526Z,3.30
2018-03-22T18:27:50.142Z,3.30
2018-03-22T18:30:16.479Z,3.30
2018-03-22T18:32:42.832Z,3.30
2018-03-22T18:35:09.142Z,3.30
2018-03-22T18:37:35.429Z,3.30
2018-03-22T18:40:01.720Z,3.20
2018-03-22T18:42:28.955Z,3.20
2018-03-22T18:44:56.056Z,3.10
2018-03-22T18:47:22.395Z,3.10
2018-03-22T18:49:48.702Z,3.00
2018-03-22T18:52:15.728Z,2.80
2018-03-22T18:54:42.064Z,2.80
2018-03-22T18:57:08.349Z,2.80
2018-03-22T18:59:36.366Z,2.70
2018-03-22T19:02:03.732Z,2.70
2018-03-22T19:04:30.060Z,2.80
2018-03-22T19:06:56.354Z,2.70
2018-03-22T19:09:22.661Z,2.70
2018-03-22T19:11:49.299Z,2.60
2018-03-22T19:14:15.601Z,2.60
2018-03-22T19:16:42.938Z,2.50
2018-03-22T19:19:09.293Z,2.40
2018-03-22T19:21:36.554Z,2.30
2018-03-22T19:24:03.087Z,2.20
2018-03-22T19:26:29.889Z,2.10
2018-03-22T19:28:56.970Z,2.00
2018-03-22T19:31:23.264Z,2.00
2018-03-22T19:33:49.591Z,2.00
2018-03-22T19:36:15.886Z,1.90
2018-03-22T19:38:42.918Z,1.80
2018-03-22T19:41:09.274Z,1.80
2018-03-22T19:43:35.553Z,1.80
2018-03-22T19:46:01.841Z,1.70
2018-03-22T19:48:29.027Z,1.70
2018-03-22T19:50:56.306Z,1.70
2018-03-22T19:53:22.597Z,1.60
2018-03-22T19:55:48.881Z,1.70
2018-03-22T19:58:15.960Z,1.60
2018-03-22T20:00:42.248Z,1.60
2018-03-22T20:03:08.575Z,1.60
2018-03-22T20:05:35.022Z,1.50
2018-03-22T20:08:01.763Z,1.50
2018-03-22T20:10:28.075Z,1.60
2018-03-22T20:12:54.407Z,1.50
2018-03-22T20:15:21.483Z,1.50
2018-03-22T20:17:47.899Z,1.50
2018-03-22T20:20:15.213Z,1.50
2018-03-22T20:22:41.500Z,1.40
2018-03-22T20:25:07.828Z,1.40
2018-03-22T20:27:34.143Z,1.40
2018-03-22T20:30:00.474Z,1.40
2018-03-22T20:32:26.790Z,1.40
2018-03-22T20:34:53.858Z,1.40
2018-03-22T20:37:20.916Z,1.40
2018-03-22T20:39:48.022Z,1.30
2018-03-22T20:42:14.362Z,1.30
2018-03-22T20:44:40.654Z,1.30
2018-03-22T20:47:08.135Z,1.20
2018-03-22T20:49:34.535Z,1.10
2018-03-22T20:52:00.926Z,1.10
2018-03-22T20:54:27.240Z,1.10
2018-03-22T20:56:54.066Z,1.10
2018-03-22T20:59:20.402Z,1.10
2018-03-22T21:01:46.666Z,1.10
2018-03-22T21:04:13.938Z,1.10
2018-03-22T21:06:40.246Z,1.00
2018-03-22T21:09:06.535Z,1.00
2018-03-22T21:11:33.623Z,1.00
2018-03-22T21:13:59.947Z,1.00
2018-03-22T21:16:27.064Z,1.00
2018-03-22T21:18:53.341Z,0.90
2018-03-22T21:21:20.390Z,0.90
2018-03-22T21:23:46.632Z,0.90
2018-03-22T21:26:12.884Z,0.90
2018-03-22T21:28:39.851Z,0.80
2018-03-22T21:31:06.828Z,0.80
2018-03-22T21:33:33.353Z,0.80
2018-03-22T21:36:00.348Z,0.70
2018-03-22T21:38:26.585Z,0.70
2018-03-22T21:40:52.913Z,0.70
2018-03-22T21:43:19.227Z,0.70
2018-03-22T21:45:46.521Z,0.70
2018-03-22T21:48:12.906Z,0.70
2018-03-22T21:50:48.272Z,0.70
2018-03-22T21:53:14.525Z,0.70
2018-03-22T21:55:41.146Z,0.70
2018-03-22T21:58:07.394Z,0.60
2018-03-22T22:00:33.637Z,0.70
2018-03-22T22:02:59.871Z,0.60
2018-03-22T22:05:26.117Z,0.60
2018-03-22T22:07:52.377Z,0.70
2018-03-22T22:10:18.598Z,0.70
2018-03-22T22:12:44.848Z,0.70
2018-03-22T22:15:11.085Z,0.70
2018-03-22T22:17:37.299Z,0.70
2018-03-22T22:20:03.554Z,0.70
2018-03-22T22:22:30.631Z,0.70
2018-03-22T22:24:56.843Z,0.70
2018-03-22T22:27:23.118Z,0.70
2018-03-22T22:29:49.342Z,0.70
2018-03-22T22:32:15.915Z,0.70
2018-03-22T22:34:42.130Z,0.70
2018-03-22T22:37:08.359Z,0.70
2018-03-22T22:39:34.583Z,0.70
2018-03-22T22:42:00.778Z,0.70
2018-03-22T22:44:27.003Z,0.70
2018-03-22T22:46:53.981Z,0.70
2018-03-22T22:49:20.212Z,0.60
2018-03-22T22:51:47.630Z,0.60
2018-03-22T22:54:15.116Z,0.60
2018-03-22T22:56:41.647Z,0.50
2018-03-22T22:59:08.936Z,0.60
2018-03-22T23:01:35.163Z,0.60
2018-03-22T23:04:01.407Z,0.60
2018-03-22T23:06:28.894Z,0.60
2018-03-22T23:08:55.524Z,0.70
2018-03-22T23:11:21.804Z,0.70
2018-03-22T23:13:48.950Z,0.70
2018-03-22T23:16:15.338Z,0.60
2018-03-22T23:18:42.325Z,0.60
2018-03-22T23:21:08.551Z,0.60
2018-03-22T23:23:34.864Z,0.60
2018-03-22T23:26:01.862Z,0.60
2018-03-22T23:28:28.414Z,0.60
2018-03-22T23:30:54.658Z,0.50
2018-03-22T23:33:20.880Z,0.60
2018-03-22T23:35:47.144Z,0.50
2018-03-22T23:38:13.376Z,0.60
2018-03-22T23:40:39.600Z,0.50
2018-03-22T23:43:05.821Z,0.60
2018-03-22T23:45:32.784Z,0.60
2018-03-22T23:47:59.743Z,0.60
2018-03-22T23:50:25.965Z,0.50
2018-03-22T23:52:52.941Z,0.50
2018-03-22T23:55:19.158Z,0.50
2018-03-22T23:57:45.376Z,0.50
